Time;durP1;ratioP1;P1;durP2;ratioP2;P2;SDS_P1;SDS_P2;PMS_P1;PMS_P2;Temp;Humidity;BMP_temperature;BMP_pressure;BME280_temperature;BME280_humidity;BME280_pressure;Samples;Min_cycle;Max_cycle;Signal;HPM_P1;HPM_P2
2023/11/23 00:01:14;;;;;;;31.03;15.27;;;8.20;99.90;;;;;;5042628;28;20197;-62
2023/11/23 00:03:42;;;;;;;28.97;16.20;;;8.20;99.90;;;;;;5044064;28;20218;-62
2023/11/23 00:06:11;;;;;;;27.90;16.20;;;8.20;99.90;;;;;;5042988;28;20278;-62
2023/11/23 00:08:41;;;;;;;28.57;15.47;;;8.20;99.90;;;;;;5042923;28;20710;-62
2023/11/23 00:11:10;;;;;;;30.17;15.10;;;8.30;99.90;;;;;;5041515;28;20595;-62
2023/11/23 00:13:38;;;;;;;35.43;15.83;;;8.30;99.90;;;;;;5042012;28;20181;-63
2023/11/23 00:16:09;;;;;;;27.03;14.60;;;8.30;99.90;;;;;;5039730;28;20305;-62
2023/11/23 00:18:37;;;;;;;31.43;16.27;;;8.40;99.90;;;;;;5041482;28;20213;-62
2023/11/23 00:21:06;;;;;;;28.57;14.37;;;8.40;99.90;;;;;;5041934;28;20223;-62
2023/11/23 00:23:34;;;;;;;28.87;15.57;;;8.40;99.90;;;;;;5042212;28;20707;-63
2023/11/23 00:26:03;;;;;;;36.83;15.30;;;8.40;99.90;;;;;;5040619;28;20192;-62
2023/11/23 00:28:31;;;;;;;31.33;14.93;;;8.40;99.90;;;;;;5041948;28;20204;-63
2023/11/23 00:30:59;;;;;;;29.70;15.50;;;8.40;99.90;;;;;;5041223;28;20224;-62
2023/11/23 00:33:29;;;;;;;28.93;15.00;;;8.40;99.90;;;;;;5035818;28;20228;-63
2023/11/23 00:35:57;;;;;;;28.90;15.80;;;8.50;99.90;;;;;;5042448;28;20213;-63
2023/11/23 00:38:26;;;;;;;28.93;15.20;;;8.40;99.90;;;;;;5038043;28;20229;-62
2023/11/23 00:40:54;;;;;;;33.17;15.97;;;8.40;99.90;;;;;;5039931;28;20226;-62
2023/11/23 00:43:22;;;;;;;27.90;15.47;;;8.30;99.90;;;;;;5039235;28;20200;-63
2023/11/23 00:45:51;;;;;;;34.33;16.83;;;8.20;99.90;;;;;;5041907;28;20228;-62
2023/11/23 00:48:19;;;;;;;29.50;15.27;;;8.20;99.90;;;;;;5042871;28;20221;-62
2023/11/23 00:50:48;;;;;;;33.73;16.83;;;8.20;99.90;;;;;;5039174;28;20225;-62
2023/11/23 00:53:17;;;;;;;32.10;16.73;;;8.20;99.90;;;;;;5040181;28;20247;-62
2023/11/23 00:55:45;;;;;;;31.13;16.73;;;8.20;99.90;;;;;;5041896;28;20577;-62
2023/11/23 00:58:13;;;;;;;30.00;15.77;;;8.20;99.90;;;;;;5040496;28;20208;-63
2023/11/23 01:00:43;;;;;;;33.37;16.43;;;8.20;99.90;;;;;;5041449;28;21735;-63
2023/11/23 01:03:11;;;;;;;35.17;15.53;;;8.20;99.90;;;;;;5042797;28;20232;-62
2023/11/23 01:05:39;;;;;;;30.83;16.03;;;8.20;99.90;;;;;;5040870;28;20627;-63
2023/11/23 01:08:09;;;;;;;26.47;15.33;;;8.20;99.90;;;;;;5041959;28;20663;-62
2023/11/23 01:10:37;;;;;;;30.37;16.23;;;8.20;99.90;;;;;;5042582;28;20508;-63
2023/11/23 01:13:06;;;;;;;27.27;16.73;;;8.20;99.90;;;;;;5042368;28;20224;-63
2023/11/23 01:15:34;;;;;;;28.33;15.93;;;8.20;99.90;;;;;;5040779;28;20583;-63
2023/11/23 01:18:02;;;;;;;28.70;15.87;;;8.20;99.90;;;;;;5042314;28;20217;-63
2023/11/23 01:20:31;;;;;;;26.93;16.77;;;8.20;99.90;;;;;;5040204;28;20315;-62
2023/11/23 01:22:59;;;;;;;30.20;15.67;;;8.20;99.90;;;;;;5041502;28;20657;-62
2023/11/23 01:25:28;;;;;;;28.47;16.63;;;8.20;99.90;;;;;;5038730;28;20681;-63
2023/11/23 01:27:57;;;;;;;28.03;15.67;;;8.30;99.90;;;;;;5038479;28;20286;-63
2023/11/23 01:30:25;;;;;;;29.00;16.73;;;8.30;99.90;;;;;;5037187;28;20217;-63
2023/11/23 01:32:53;;;;;;;29.60;16.43;;;8.30;99.90;;;;;;5039464;28;20213;-63
2023/11/23 01:35:22;;;;;;;33.30;17.10;;;8.40;99.90;;;;;;5040733;28;20248;-63
2023/11/23 01:37:51;;;;;;;29.20;16.80;;;8.50;99.90;;;;;;5045308;28;20602;-62
2023/11/23 01:40:19;;;;;;;34.93;17.83;;;8.60;99.90;;;;;;5037843;28;20201;-63
2023/11/23 01:42:49;;;;;;;31.90;17.37;;;8.60;99.90;;;;;;5032865;28;20220;-63
2023/11/23 01:45:17;;;;;;;28.80;17.47;;;8.70;99.90;;;;;;5042154;28;20224;-63
2023/11/23 01:47:47;;;;;;;32.43;17.43;;;8.80;99.90;;;;;;5040581;28;20290;-63
2023/11/23 01:50:18;;;;;;;26.77;17.07;;;8.80;99.90;;;;;;5038114;28;20272;-63
2023/11/23 01:52:47;;;;;;;30.17;16.73;;;8.80;99.90;;;;;;5042898;28;20242;-63
2023/11/23 01:55:16;;;;;;;29.47;17.20;;;8.80;99.90;;;;;;5038216;28;20223;-63
2023/11/23 01:57:47;;;;;;;27.20;16.13;;;8.90;99.90;;;;;;5037198;28;20221;-63
2023/11/23 02:00:17;;;;;;;28.20;15.73;;;8.90;99.90;;;;;;5037503;28;20216;-63
2023/11/23 02:02:45;;;;;;;24.90;15.87;;;8.90;99.90;;;;;;5041487;28;20319;-63
2023/11/23 02:05:14;;;;;;;25.53;15.73;;;8.90;99.90;;;;;;5039231;28;20256;-63
2023/11/23 02:07:42;;;;;;;26.83;15.60;;;9.00;99.90;;;;;;5037854;28;20551;-63
2023/11/23 02:10:11;;;;;;;23.83;15.23;;;9.00;99.90;;;;;;5043790;28;20741;-63
2023/11/23 02:12:40;;;;;;;23.00;15.10;;;9.10;99.90;;;;;;5041485;28;20232;-63
2023/11/23 02:15:10;;;;;;;25.83;14.90;;;9.10;99.90;;;;;;5047676;28;20216;-63
2023/11/23 02:17:40;;;;;;;22.17;14.40;;;9.20;99.90;;;;;;5047126;28;20239;-63
2023/11/23 02:20:11;;;;;;;23.30;14.80;;;9.20;99.90;;;;;;5046872;28;20229;-63
2023/11/23 02:22:39;;;;;;;22.57;13.77;;;9.20;99.90;;;;;;5046148;28;20280;-62
2023/11/23 02:25:09;;;;;;;26.97;14.47;;;9.30;99.90;;;;;;5046661;28;20224;-63
2023/11/23 02:27:37;;;;;;;21.07;13.53;;;9.30;99.90;;;;;;5045862;28;20274;-63
2023/11/23 02:30:07;;;;;;;20.13;13.47;;;9.30;99.90;;;;;;5046450;28;20726;-63
2023/11/23 02:32:35;;;;;;;25.00;14.13;;;9.40;99.90;;;;;;5044129;28;20213;-63
2023/11/23 02:35:05;;;;;;;23.90;13.63;;;9.30;99.90;;;;;;5045544;28;20339;-63
2023/11/23 02:37:33;;;;;;;23.70;13.57;;;9.30;99.90;;;;;;5044042;28;20203;-63
2023/11/23 02:40:01;;;;;;;20.43;12.97;;;9.40;99.90;;;;;;5047875;28;20264;-63
2023/11/23 02:42:31;;;;;;;22.20;13.20;;;9.40;99.90;;;;;;5045435;28;20208;-63
2023/11/23 02:45:00;;;;;;;24.80;14.17;;;9.40;99.90;;;;;;5044188;28;20220;-63
2023/11/23 02:47:28;;;;;;;19.53;12.90;;;9.40;99.90;;;;;;5039243;28;20662;-63
2023/11/23 02:49:57;;;;;;;20.87;13.43;;;9.40;99.90;;;;;;5049575;28;20198;-64
2023/11/23 02:52:25;;;;;;;19.57;12.50;;;9.30;99.90;;;;;;5042161;28;20193;-64
2023/11/23 02:54:54;;;;;;;17.80;12.30;;;9.30;99.90;;;;;;5041753;28;20212;-64
2023/11/23 02:57:22;;;;;;;19.13;13.63;;;9.30;99.90;;;;;;5042395;28;20221;-63
2023/11/23 02:59:51;;;;;;;19.77;12.60;;;9.40;99.90;;;;;;5043708;28;20328;-63
2023/11/23 03:02:20;;;;;;;16.50;12.03;;;9.30;99.90;;;;;;5045945;28;20233;-63
2023/11/23 03:04:48;;;;;;;18.57;13.17;;;9.30;99.90;;;;;;5041996;28;20196;-62
2023/11/23 03:07:17;;;;;;;23.20;12.47;;;9.40;99.90;;;;;;5044537;28;20197;-63
2023/11/23 03:09:46;;;;;;;17.23;11.90;;;9.40;99.90;;;;;;5043193;28;20224;-63
2023/11/23 03:12:14;;;;;;;20.17;13.20;;;9.40;99.90;;;;;;5043367;28;20222;-63
2023/11/23 03:14:42;;;;;;;19.43;12.53;;;9.40;99.90;;;;;;5042721;28;20244;-62
2023/11/23 03:17:12;;;;;;;17.70;11.97;;;9.40;99.90;;;;;;5044205;28;20243;-63
2023/11/23 03:19:40;;;;;;;20.93;12.53;;;9.40;99.90;;;;;;5042800;28;20220;-63
2023/11/23 03:22:08;;;;;;;19.30;12.53;;;9.40;99.90;;;;;;5048473;28;20221;-63
2023/11/23 03:24:37;;;;;;;19.77;12.47;;;9.40;99.90;;;;;;5041568;28;20228;-62
2023/11/23 03:27:05;;;;;;;20.87;12.50;;;9.40;99.90;;;;;;5042568;28;20737;-63
2023/11/23 03:29:33;;;;;;;20.47;12.53;;;9.40;99.90;;;;;;5042686;28;20225;-62
2023/11/23 03:32:02;;;;;;;20.80;12.27;;;9.40;99.90;;;;;;5043363;28;20521;-62
2023/11/23 03:34:32;;;;;;;16.73;11.73;;;9.40;99.90;;;;;;5042570;28;20197;-63
2023/11/23 03:37:00;;;;;;;19.50;11.50;;;9.40;99.90;;;;;;5041657;28;20316;-63
2023/11/23 03:39:30;;;;;;;20.43;11.90;;;9.40;99.90;;;;;;5044050;28;20221;-62
2023/11/23 03:41:58;;;;;;;18.60;11.80;;;9.50;99.90;;;;;;5043003;28;20228;-62
2023/11/23 03:44:26;;;;;;;18.50;11.40;;;9.50;99.90;;;;;;5039006;28;20209;-62
2023/11/23 03:46:54;;;;;;;17.37;11.33;;;9.50;99.90;;;;;;5042578;28;20211;-62
2023/11/23 03:49:23;;;;;;;20.27;11.97;;;9.40;99.90;;;;;;5044236;28;20199;-62
2023/11/23 03:51:52;;;;;;;18.33;10.97;;;9.40;99.90;;;;;;5038260;28;20304;-62
2023/11/23 03:54:21;;;;;;;24.57;12.00;;;9.50;99.90;;;;;;5041975;28;20320;-62
2023/11/23 03:56:49;;;;;;;16.20;11.87;;;9.40;99.90;;;;;;5041912;28;20783;-62
2023/11/23 03:59:17;;;;;;;15.67;11.17;;;9.50;99.90;;;;;;5041305;28;20289;-62
2023/11/23 04:01:46;;;;;;;20.03;11.60;;;9.60;99.90;;;;;;5042376;28;20204;-62
2023/11/23 04:04:15;;;;;;;19.23;11.40;;;9.50;99.90;;;;;;5043230;28;20229;-63
2023/11/23 04:06:45;;;;;;;16.07;11.37;;;9.60;99.90;;;;;;5040812;28;20224;-63
2023/11/23 04:09:17;;;;;;;15.27;10.67;;;9.60;99.90;;;;;;5043966;28;20312;-63
2023/11/23 04:11:46;;;;;;;16.23;11.07;;;9.60;99.90;;;;;;5041671;28;20299;-63
2023/11/23 04:14:14;;;;;;;17.83;11.30;;;9.50;99.90;;;;;;5039947;28;20216;-62
2023/11/23 04:16:42;;;;;;;18.87;11.33;;;9.50;99.90;;;;;;5038010;28;20284;-62
2023/11/23 04:19:10;;;;;;;16.23;11.77;;;9.50;99.90;;;;;;5042868;28;20220;-63
2023/11/23 04:21:39;;;;;;;19.63;11.27;;;9.50;99.90;;;;;;5027856;28;20218;-62
2023/11/23 04:24:08;;;;;;;15.00;11.53;;;9.50;99.90;;;;;;5021297;28;20222;-62
2023/11/23 04:26:41;;;;;;;24.57;12.20;;;9.40;99.90;;;;;;5017982;28;20339;-62
2023/11/23 04:29:09;;;;;;;19.93;12.33;;;9.40;99.90;;;;;;5017308;28;20321;-63
2023/11/23 04:31:37;;;;;;;16.40;12.50;;;9.40;99.90;;;;;;5024169;28;20190;-62
2023/11/23 04:34:05;;;;;;;18.97;11.63;;;9.40;99.90;;;;;;5020627;28;20272;-63
2023/11/23 04:36:34;;;;;;;19.70;11.73;;;9.40;99.90;;;;;;5020872;28;20300;-62
2023/11/23 04:39:02;;;;;;;19.77;11.90;;;9.40;99.90;;;;;;5019906;28;20571;-62
2023/11/23 04:41:30;;;;;;;23.93;12.33;;;9.40;99.90;;;;;;5019222;28;20235;-63
2023/11/23 04:44:00;;;;;;;21.30;11.63;;;9.40;99.90;;;;;;5019842;28;20189;-62
2023/11/23 04:46:30;;;;;;;18.23;12.10;;;9.40;99.90;;;;;;5024856;28;20664;-62
2023/11/23 04:48:58;;;;;;;16.13;11.50;;;9.40;99.90;;;;;;5022681;28;20256;-62
2023/11/23 04:51:26;;;;;;;16.87;10.97;;;9.40;99.90;;;;;;5019594;28;20214;-63
2023/11/23 04:53:54;;;;;;;19.40;10.73;;;9.30;99.90;;;;;;5022528;28;20272;-62
2023/11/23 04:56:23;;;;;;;17.87;11.30;;;9.30;99.90;;;;;;5022433;28;20220;-62
2023/11/23 04:58:51;;;;;;;21.77;11.57;;;9.20;99.90;;;;;;5021858;28;20288;-62
2023/11/23 05:01:21;;;;;;;17.23;11.13;;;9.20;99.90;;;;;;5023914;28;20570;-63
2023/11/23 05:03:49;;;;;;;15.67;10.80;;;9.20;99.90;;;;;;5020228;28;20700;-63
2023/11/23 05:06:17;;;;;;;18.03;11.10;;;9.10;99.90;;;;;;5019505;28;20236;-63
2023/11/23 05:08:46;;;;;;;18.47;11.77;;;9.10;99.90;;;;;;5020054;28;20225;-63
2023/11/23 05:11:15;;;;;;;16.70;10.53;;;9.10;99.90;;;;;;5023121;28;20239;-63
2023/11/23 05:13:43;;;;;;;17.10;10.80;;;9.10;99.90;;;;;;5019740;28;20198;-58
2023/11/23 05:16:11;;;;;;;16.40;11.27;;;9.10;99.90;;;;;;5021260;28;20244;-63
2023/11/23 05:18:41;;;;;;;16.93;11.00;;;9.10;99.90;;;;;;5023190;28;22375;-63
2023/11/23 05:21:11;;;;;;;21.07;10.43;;;9.10;99.90;;;;;;5023705;28;20232;-62
2023/11/23 05:23:39;;;;;;;16.77;10.77;;;9.10;99.90;;;;;;5019610;28;20249;-63
2023/11/23 05:26:08;;;;;;;18.27;10.77;;;9.10;99.90;;;;;;5018522;28;20232;-62
2023/11/23 05:28:36;;;;;;;16.30;10.80;;;9.10;99.90;;;;;;5020032;28;20210;-62
2023/11/23 05:31:04;;;;;;;18.53;11.43;;;9.10;99.90;;;;;;5019864;28;20214;-62
2023/11/23 05:33:33;;;;;;;17.87;10.73;;;9.20;99.90;;;;;;5016335;28;20226;-63
2023/11/23 05:36:03;;;;;;;19.40;11.10;;;9.20;99.90;;;;;;5022500;28;20623;-62
2023/11/23 05:38:32;;;;;;;16.17;11.07;;;9.20;99.90;;;;;;5016795;28;20237;-63
2023/11/23 05:41:00;;;;;;;16.80;10.77;;;9.30;99.90;;;;;;5020054;28;20204;-62
2023/11/23 05:43:28;;;;;;;14.57;10.60;;;9.30;99.90;;;;;;5022298;28;20193;-62
2023/11/23 05:45:57;;;;;;;14.87;10.43;;;9.40;99.90;;;;;;5021073;28;21042;-62
2023/11/23 05:48:25;;;;;;;12.33;9.87;;;9.40;99.90;;;;;;5021104;28;20239;-63
2023/11/23 05:50:53;;;;;;;12.10;10.10;;;9.30;99.90;;;;;;5021864;28;20247;-63
2023/11/23 05:53:23;;;;;;;15.10;10.27;;;9.40;99.90;;;;;;5021454;28;20553;-62
2023/11/23 05:55:53;;;;;;;14.27;10.17;;;9.40;99.90;;;;;;5020622;28;20193;-62
2023/11/23 05:58:21;;;;;;;22.10;10.30;;;9.40;99.90;;;;;;5023673;28;20200;-62
2023/11/23 06:00:49;;;;;;;14.80;10.20;;;9.50;99.90;;;;;;5020329;28;20301;-63
2023/11/23 06:03:34;;;;;;;17.50;9.60;;;9.50;99.90;;;;;;5019318;28;20313;-63
2023/11/23 06:06:03;;;;;;;15.27;9.17;;;9.50;99.90;;;;;;5019672;28;20233;-62
2023/11/23 06:08:34;;;;;;;11.23;8.93;;;9.50;99.90;;;;;;5020429;28;20225;-63
2023/11/23 06:11:03;;;;;;;17.27;8.67;;;9.50;99.90;;;;;;5020762;28;20202;-62
2023/11/23 06:13:31;;;;;;;14.83;9.13;;;9.60;99.90;;;;;;5021085;28;20217;-63
2023/11/23 06:15:59;;;;;;;13.03;8.77;;;9.60;99.90;;;;;;5016334;28;20225;-63
2023/11/23 06:18:28;;;;;;;14.17;9.13;;;9.60;99.90;;;;;;5020156;28;20233;-62
2023/11/23 06:20:57;;;;;;;17.60;8.73;;;9.70;99.90;;;;;;5016637;28;20221;-63
2023/11/23 06:23:25;;;;;;;13.07;8.70;;;9.60;99.90;;;;;;5022377;28;20655;-63
2023/11/23 06:25:55;;;;;;;12.03;8.13;;;9.60;99.90;;;;;;5021549;28;20189;-62
2023/11/23 06:28:23;;;;;;;13.13;8.60;;;9.70;99.90;;;;;;5021991;28;20212;-62
2023/11/23 06:30:52;;;;;;;9.47;8.17;;;9.70;99.90;;;;;;5019391;28;20221;-63
2023/11/23 06:33:20;;;;;;;10.43;8.83;;;9.70;99.90;;;;;;5020503;28;20237;-62
2023/11/23 06:35:49;;;;;;;11.97;8.43;;;9.70;99.90;;;;;;5018916;28;20243;-62
2023/11/23 06:38:17;;;;;;;10.87;8.37;;;9.70;99.90;;;;;;5016400;28;20237;-64
2023/11/23 06:40:47;;;;;;;13.17;8.60;;;9.80;99.90;;;;;;5021891;28;20241;-62
2023/11/23 06:43:17;;;;;;;9.60;7.83;;;9.70;99.90;;;;;;5023763;28;20307;-62
2023/11/23 06:45:45;;;;;;;14.37;7.90;;;9.70;99.90;;;;;;5016919;28;20214;-63
2023/11/23 06:48:13;;;;;;;10.27;8.07;;;9.70;99.90;;;;;;5016511;28;20226;-62
2023/11/23 06:50:42;;;;;;;12.40;7.80;;;9.70;99.90;;;;;;5017788;28;20218;-62
2023/11/23 06:53:10;;;;;;;11.00;8.23;;;9.60;99.90;;;;;;5014830;28;20222;-62
2023/11/23 06:55:38;;;;;;;12.87;8.13;;;9.60;99.90;;;;;;5019449;28;20222;-62
2023/11/23 06:58:07;;;;;;;15.77;8.30;;;9.60;99.90;;;;;;5020484;28;20225;-63
2023/11/23 07:00:39;;;;;;;15.37;7.90;;;9.60;99.90;;;;;;5023681;28;20315;-62
2023/11/23 07:03:10;;;;;;;12.80;8.00;;;9.60;99.90;;;;;;5019720;28;20222;-62
2023/11/23 07:05:39;;;;;;;15.17;7.90;;;9.60;99.90;;;;;;5020226;28;20301;-63
2023/11/23 07:08:07;;;;;;;10.07;6.80;;;9.50;99.90;;;;;;5019444;28;20264;-62
2023/11/23 07:10:36;;;;;;;11.83;7.10;;;9.50;99.90;;;;;;5021081;28;20675;-62
2023/11/23 07:13:04;;;;;;;11.70;7.37;;;9.50;99.90;;;;;;5020943;28;20221;-63
2023/11/23 07:15:33;;;;;;;13.97;7.67;;;9.40;99.90;;;;;;5017852;28;20245;-62
2023/11/23 07:18:03;;;;;;;10.20;7.67;;;9.40;99.90;;;;;;5024674;28;20711;-63
2023/11/23 07:20:32;;;;;;;10.10;6.97;;;9.30;99.90;;;;;;5021356;28;20217;-62
2023/11/23 07:23:01;;;;;;;9.77;7.07;;;9.20;99.90;;;;;;5018876;28;20280;-62
2023/11/23 07:25:29;;;;;;;9.53;7.07;;;9.20;99.90;;;;;;5016226;28;20202;-63
2023/11/23 07:27:57;;;;;;;9.33;7.40;;;9.20;99.90;;;;;;5020541;28;20296;-63
2023/11/23 07:30:26;;;;;;;11.43;7.90;;;9.20;99.90;;;;;;5023416;28;20217;-63
2023/11/23 07:32:54;;;;;;;10.13;6.87;;;9.20;99.90;;;;;;5018206;28;20222;-63
2023/11/23 07:35:26;;;;;;;8.30;7.47;;;9.30;99.90;;;;;;5017966;28;20845;-62
2023/11/23 07:37:54;;;;;;;13.57;7.67;;;9.30;99.90;;;;;;5020753;28;20236;-62
2023/11/23 07:40:23;;;;;;;11.50;7.40;;;9.40;99.90;;;;;;5019665;28;20244;-63
2023/11/23 07:42:51;;;;;;;8.43;6.73;;;9.40;99.90;;;;;;5020793;28;20213;-63
2023/11/23 07:45:19;;;;;;;10.33;7.10;;;9.50;99.90;;;;;;5018414;28;20227;-63
2023/11/23 07:47:48;;;;;;;9.67;7.40;;;9.50;99.90;;;;;;5017749;28;20241;-63
2023/11/23 07:50:16;;;;;;;14.23;7.73;;;9.60;99.90;;;;;;5022356;28;20565;-63
2023/11/23 07:52:47;;;;;;;9.93;6.90;;;9.60;99.90;;;;;;5019083;28;20201;-62
2023/11/23 07:55:16;;;;;;;11.83;7.23;;;9.70;99.90;;;;;;5053149;28;20202;-63
2023/11/23 07:57:44;;;;;;;12.33;6.07;;;9.70;99.90;;;;;;5018729;28;20225;-63
2023/11/23 08:00:13;;;;;;;9.30;5.77;;;9.70;99.90;;;;;;5023791;28;20299;-63
2023/11/23 08:02:42;;;;;;;9.83;6.30;;;9.80;99.90;;;;;;5021194;28;20221;-63
2023/11/23 08:05:10;;;;;;;7.77;5.80;;;9.80;99.90;;;;;;5035805;28;20249;-63
2023/11/23 08:07:39;;;;;;;6.20;5.37;;;9.90;99.90;;;;;;5022088;28;20626;-63
2023/11/23 08:10:15;;;;;;;10.13;5.53;;;9.90;99.90;;;;;;5016460;28;20305;-63
2023/11/23 08:12:43;;;;;;;8.17;5.50;;;10.00;99.90;;;;;;5019628;28;20231;-63
2023/11/23 08:15:12;;;;;;;8.53;5.73;;;10.00;99.90;;;;;;5019226;28;20267;-63
2023/11/23 08:17:42;;;;;;;6.07;5.23;;;10.00;99.90;;;;;;5018722;28;20222;-63
2023/11/23 08:20:26;;;;;;;9.27;5.53;;;10.00;99.90;;;;;;5016815;28;20236;-64
2023/11/23 08:22:57;;;;;;;7.57;4.90;;;10.10;99.90;;;;;;5020046;28;20224;-62
2023/11/23 08:25:27;;;;;;;8.50;5.03;;;10.20;99.90;;;;;;5021974;28;20224;-63
2023/11/23 08:27:55;;;;;;;8.07;5.10;;;10.20;99.90;;;;;;5015902;28;20978;-64
2023/11/23 08:30:23;;;;;;;8.10;4.83;;;10.30;99.90;;;;;;5015317;28;20220;-63
2023/11/23 08:32:52;;;;;;;8.70;5.00;;;10.30;99.90;;;;;;5018320;28;20237;-63
2023/11/23 08:35:21;;;;;;;5.73;5.20;;;10.30;99.90;;;;;;5020160;28;20730;-63
2023/11/23 08:37:49;;;;;;;5.97;4.63;;;10.40;99.90;;;;;;5018221;28;20209;-62
2023/11/23 08:40:17;;;;;;;6.63;4.63;;;10.40;99.90;;;;;;5021948;28;20545;-63
2023/11/23 08:42:47;;;;;;;4.37;4.07;;;10.50;99.90;;;;;;5018503;28;20224;-63
2023/11/23 08:45:16;;;;;;;6.63;4.37;;;10.50;99.90;;;;;;5018721;28;20352;-63
2023/11/23 08:47:44;;;;;;;8.30;4.47;;;10.50;99.90;;;;;;5012889;28;21184;-63
2023/11/23 08:50:14;;;;;;;8.30;4.03;;;10.50;99.90;;;;;;5017074;28;20231;-63
2023/11/23 08:52:42;;;;;;;6.43;4.13;;;10.60;99.90;;;;;;5023984;28;20201;-63
2023/11/23 08:55:10;;;;;;;6.17;4.00;;;10.60;99.90;;;;;;5043322;28;20212;-63
2023/11/23 08:57:40;;;;;;;4.63;3.77;;;10.60;99.90;;;;;;5023098;28;20225;-63
2023/11/23 09:00:11;;;;;;;7.20;3.80;;;10.70;99.90;;;;;;5018874;28;20696;-63
2023/11/23 09:02:40;;;;;;;6.50;3.70;;;10.70;99.90;;;;;;5015716;28;20773;-62
2023/11/23 09:05:09;;;;;;;6.80;3.53;;;10.70;99.90;;;;;;5017823;28;20788;-62
2023/11/23 09:07:38;;;;;;;6.47;3.73;;;10.80;99.90;;;;;;5021576;28;20710;-63
2023/11/23 09:10:09;;;;;;;4.50;3.50;;;10.90;99.90;;;;;;5022957;28;20233;-63
2023/11/23 09:12:38;;;;;;;4.87;3.57;;;10.90;99.90;;;;;;5025864;28;20588;-62
2023/11/23 09:15:09;;;;;;;6.67;3.20;;;11.00;99.90;;;;;;5022484;28;20218;-62
2023/11/23 09:17:39;;;;;;;6.63;4.13;;;11.10;99.90;;;;;;5025610;28;20255;-62
2023/11/23 09:20:09;;;;;;;3.57;3.20;;;11.10;99.90;;;;;;5020847;28;20253;-62
2023/11/23 09:22:37;;;;;;;4.17;3.13;;;11.10;99.90;;;;;;5021922;28;20551;-63
2023/11/23 09:25:08;;;;;;;3.37;3.07;;;11.20;99.90;;;;;;5019749;28;20223;-63
2023/11/23 09:27:36;;;;;;;3.63;3.00;;;11.20;99.90;;;;;;5021506;28;20287;-63
2023/11/23 09:30:06;;;;;;;5.07;2.97;;;11.30;99.90;;;;;;5017586;28;20576;-64
2023/11/23 09:32:36;;;;;;;6.07;3.10;;;11.30;99.90;;;;;;5019107;28;20224;-63
2023/11/23 09:35:08;;;;;;;7.03;3.50;;;11.40;99.90;;;;;;5011654;28;20230;-63
2023/11/23 09:37:36;;;;;;;3.00;2.67;;;11.40;99.90;;;;;;5017953;28;20285;-63
2023/11/23 09:40:07;;;;;;;4.83;2.93;;;11.50;99.90;;;;;;5020266;28;20228;-63
2023/11/23 09:42:38;;;;;;;2.80;2.60;;;11.50;99.90;;;;;;5020540;28;20638;-63
2023/11/23 09:45:12;;;;;;;4.50;2.90;;;11.50;99.90;;;;;;5021227;28;20316;-63
2023/11/23 09:47:42;;;;;;;4.77;2.77;;;11.50;99.90;;;;;;5022993;28;20225;-63
2023/11/23 09:50:12;;;;;;;5.43;2.80;;;11.60;99.90;;;;;;5020277;28;20228;-63
2023/11/23 09:52:41;;;;;;;3.00;2.80;;;11.60;99.90;;;;;;5020756;28;20289;-63
2023/11/23 09:55:10;;;;;;;2.93;2.70;;;11.60;99.90;;;;;;5019136;28;20253;-63
2023/11/23 09:57:39;;;;;;;4.77;2.70;;;11.60;99.90;;;;;;5010786;28;20229;-62
2023/11/23 10:00:13;;;;;;;4.33;2.90;;;11.60;99.90;;;;;;5015986;28;20217;-62
2023/11/23 10:02:44;;;;;;;7.83;2.73;;;11.70;99.90;;;;;;5015552;28;20221;-62
2023/11/23 10:05:15;;;;;;;11.63;2.90;;;11.70;99.90;;;;;;5019830;28;20229;-62
2023/11/23 10:07:45;;;;;;;4.63;2.70;;;11.70;99.90;;;;;;5018979;28;20251;-61
2023/11/23 10:10:15;;;;;;;4.63;2.47;;;11.70;99.90;;;;;;5019513;28;20300;-62
2023/11/23 10:12:45;;;;;;;3.27;2.70;;;11.70;99.90;;;;;;5017033;28;20318;-62
2023/11/23 10:15:14;;;;;;;7.30;2.93;;;11.70;99.90;;;;;;5025139;28;20617;-62
2023/11/23 10:17:42;;;;;;;5.00;2.63;;;11.80;99.90;;;;;;5021877;28;20304;-62
2023/11/23 10:20:12;;;;;;;4.17;2.60;;;11.80;99.90;;;;;;5020279;28;20236;-62
2023/11/23 10:22:44;;;;;;;3.10;2.50;;;11.80;99.90;;;;;;5021597;28;20240;-62
2023/11/23 10:25:24;;;;;;;2.97;2.47;;;11.90;99.90;;;;;;5020839;28;20247;-62
2023/11/23 10:27:53;;;;;;;5.53;2.97;;;11.90;99.90;;;;;;5050729;28;20766;-62
2023/11/23 10:30:23;;;;;;;3.13;2.83;;;12.00;99.90;;;;;;5024413;28;20225;-62
2023/11/23 10:32:53;;;;;;;3.10;2.80;;;12.00;99.90;;;;;;5015452;28;20234;-62
2023/11/23 10:35:22;;;;;;;3.17;2.80;;;12.00;99.90;;;;;;5019791;28;20692;-62
2023/11/23 10:37:54;;;;;;;6.47;3.10;;;12.10;99.90;;;;;;5021572;28;20209;-61
2023/11/23 10:40:24;;;;;;;8.33;3.10;;;12.10;99.90;;;;;;5021488;28;20205;-62
2023/11/23 10:42:53;;;;;;;6.70;2.90;;;12.20;99.90;;;;;;5020971;28;20327;-62
2023/11/23 10:45:22;;;;;;;4.80;3.00;;;12.30;99.90;;;;;;5020493;28;20230;-62
2023/11/23 10:47:54;;;;;;;6.20;3.20;;;12.40;99.90;;;;;;5022573;28;20226;-62
2023/11/23 10:50:24;;;;;;;4.23;2.80;;;12.40;99.90;;;;;;5020159;28;20225;-62
2023/11/23 10:52:56;;;;;;;3.13;2.60;;;12.50;99.90;;;;;;5017868;28;21949;-62
2023/11/23 10:55:25;;;;;;;3.43;2.63;;;12.50;99.90;;;;;;5026683;28;20198;-62
2023/11/23 10:57:56;;;;;;;3.20;2.90;;;12.50;99.90;;;;;;5020244;28;20214;-62
2023/11/23 11:00:27;;;;;;;4.07;2.63;;;12.60;99.90;;;;;;5020960;28;20239;-63
2023/11/23 11:02:59;;;;;;;3.73;2.80;;;;;;;;;;5019379;28;20218;-62
2023/11/23 11:05:30;;;;;;;3.57;2.90;;;12.60;99.90;;;;;;5023500;28;20225;-62
2023/11/23 11:08:01;;;;;;;5.90;2.77;;;12.70;99.90;;;;;;5023692;28;20188;-62
2023/11/23 11:10:33;;;;;;;3.00;2.80;;;12.70;99.90;;;;;;5019838;28;20209;-63
2023/11/23 11:13:08;;;;;;;3.70;2.90;;;12.80;99.90;;;;;;5014060;28;20234;-63
2023/11/23 11:15:37;;;;;;;5.43;2.80;;;12.70;99.90;;;;;;5021891;28;20308;-63
2023/11/23 11:18:10;;;;;;;6.60;2.60;;;12.80;99.90;;;;;;5022116;28;20272;-64
2023/11/23 11:20:41;;;;;;;3.20;2.87;;;12.80;99.90;;;;;;5020898;28;20214;-62
2023/11/23 11:23:10;;;;;;;4.40;2.83;;;12.80;99.90;;;;;;5019708;28;20659;-62
2023/11/23 11:25:40;;;;;;;5.40;3.20;;;12.90;99.90;;;;;;5024109;28;20193;-62
2023/11/23 11:28:14;;;;;;;4.67;3.00;;;12.90;99.90;;;;;;5020008;28;20213;-62
2023/11/23 11:30:46;;;;;;;3.20;2.40;;;12.90;99.90;;;;;;5018788;28;20225;-62
2023/11/23 11:33:17;;;;;;;6.20;3.10;;;12.90;99.90;;;;;;5039105;28;20575;-62
2023/11/23 11:35:46;;;;;;;8.70;3.17;;;12.90;99.90;;;;;;5038310;28;20224;-62
2023/11/23 11:38:16;;;;;;;8.90;3.13;;;12.90;99.90;;;;;;5039358;28;20304;-61
2023/11/23 11:40:48;;;;;;;5.77;3.10;;;12.90;99.90;;;;;;5041017;28;20194;-61
2023/11/23 11:43:19;;;;;;;8.00;3.40;;;12.80;99.90;;;;;;5043456;28;20193;-62
2023/11/23 11:45:48;;;;;;;10.17;3.37;;;12.80;99.90;;;;;;5037122;28;20431;-62
2023/11/23 11:48:16;;;;;;;5.47;2.90;;;12.80;99.90;;;;;;5038141;28;20228;-62
2023/11/23 11:50:44;;;;;;;8.20;2.97;;;12.80;99.90;;;;;;5040577;28;20304;-62
2023/11/23 11:53:13;;;;;;;9.10;3.10;;;12.80;99.90;;;;;;5036914;28;20268;-63
2023/11/23 11:55:45;;;;;;;7.93;3.47;;;12.90;99.90;;;;;;5042672;28;20198;-62
2023/11/23 11:58:13;;;;;;;3.77;3.07;;;12.90;99.90;;;;;;5042303;28;20216;-62
2023/11/23 12:00:44;;;;;;;5.70;3.07;;;13.00;99.90;;;;;;5045040;28;20212;-62
2023/11/23 12:03:12;;;;;;;5.10;2.90;;;13.00;99.90;;;;;;5041046;28;20221;-62
2023/11/23 12:05:41;;;;;;;5.57;3.10;;;13.00;99.90;;;;;;5042437;28;20229;-62
2023/11/23 12:08:09;;;;;;;4.67;3.00;;;13.00;99.90;;;;;;5036282;28;20622;-62
2023/11/23 12:10:39;;;;;;;6.23;3.50;;;13.00;99.90;;;;;;5040911;28;20274;-62
2023/11/23 12:13:14;;;;;;;5.97;2.80;;;13.00;99.90;;;;;;5037166;28;20222;-62
2023/11/23 12:15:43;;;;;;;9.07;3.30;;;13.10;99.90;;;;;;5026670;28;20224;-63
2023/11/23 12:18:13;;;;;;;4.10;2.87;;;13.10;99.90;;;;;;5022293;28;20272;-63
2023/11/23 12:20:42;;;;;;;5.87;3.47;;;13.00;99.90;;;;;;5019354;28;20244;-63
2023/11/23 12:23:10;;;;;;;7.00;3.37;;;13.00;99.90;;;;;;5020792;28;20237;-62
2023/11/23 12:25:38;;;;;;;4.77;3.20;;;12.90;99.90;;;;;;5019578;28;20288;-63
2023/11/23 12:28:12;;;;;;;3.97;2.90;;;13.00;99.90;;;;;;5019945;28;20221;-63
2023/11/23 12:30:40;;;;;;;7.33;3.10;;;13.00;99.90;;;;;;5022137;28;20228;-63
2023/11/23 12:33:08;;;;;;;6.30;2.77;;;12.90;99.90;;;;;;5016981;28;20230;-63
2023/11/23 12:35:37;;;;;;;10.83;3.93;;;12.90;99.90;;;;;;5024407;28;20683;-63
2023/11/23 12:38:06;;;;;;;6.03;3.50;;;12.90;99.90;;;;;;5020586;28;20234;-62
2023/11/23 12:40:34;;;;;;;8.63;3.50;;;12.90;99.90;;;;;;5019154;28;20187;-63
2023/11/23 12:43:03;;;;;;;4.47;3.47;;;12.90;99.90;;;;;;5017591;28;20221;-63
2023/11/23 12:45:35;;;;;;;6.33;3.00;;;12.90;99.90;;;;;;5018269;28;20694;-64
2023/11/23 12:48:04;;;;;;;6.20;3.70;;;12.90;99.90;;;;;;5018494;28;20686;-63
2023/11/23 12:50:33;;;;;;;6.13;3.73;;;12.90;99.90;;;;;;5021887;28;20218;-63
2023/11/23 12:53:01;;;;;;;5.37;3.83;;;12.80;99.90;;;;;;5018584;28;20190;-63